Nahant, MA

11:00 PM EST on December 03, 2016 (GMT -0500)
8 Tudor Road | | Change Station

Elev 95 ft 42.43 °N, 70.92 °W | Updated 14 seconds ago

Partly Cloudy
Partly Cloudy
34.7 °F
Feels Like 29 °F
N
6.0
Wind Variable Wind from West

Today
High -- | Low -- °F
--% Chance of Precip.
Yesterday
High -- | Low -- °F
Precip. -- in
Pressure 30.04 in
Visibility 10.0 miles
Clouds Few 4000 ft
Windchill 29 °F
Dew Point 25 °F
Humidity 68%
Rainfall 0.00 in
Snow Depth Not available.
6:56 AM 4:11 PM
Waxing Crescent, 19% visible
METAR KBOS 040354Z 32011KT 10SM FEW040 02/M04 A3004 RMK AO2 SLP173 T00221044
Pressure 30.04 in
Visibility 10.0 miles
Clouds Few 4000 ft
Windchill 29 °F
Dew Point 25 °F
Humidity 68%
Rainfall 0.00 in
Snow Depth Not available.
6:56 AM 4:11 PM
Waxing Crescent, 19% visible
METAR KBOS 040354Z 32011KT 10SM FEW040 02/M04 A3004 RMK AO2 SLP173 T00221044

10-Day Weather Forecast

Almanac

Astronomy

Dec. 03, 2016 Rise Set
Actual Time
Civil Twilight
Nautical Twilight
Astronomical Twilight
Moon
Length of Visible Light
Length of Day
Tomorrow will be .
, % of the Moon is Illuminated

Today's Extremes

State Highs State Lows

Community

WunderPhotos

Upload Photos

1,955,573 photos uploaded!

WunderBlog® & News

Nearby

Air Quality

  Air Quality AQ Index Pollutant
Not available.

Snow Depth

Station Depth Elevation

Earthquake Activity

City Distance Mag. Time & Date
Minimum magnitude displayed is 2.5.

Coastal Water Temperatures

Place Temperature

Stations

Nearby Weather Stations

Station Location Temp. Windchill Dew Point Humidity Wind Precip. Elev Updated Type
                   

Watches & Warnings

There are currently no watches in effect.